sensor_id;sensor_type;location;lat;lon;timestamp;pressure;altitude;pressure_sealevel;temperature;humidity
50632;BME280;49583;45.590;-122.498;2023-03-19T00:01:20;100872.58;;;20.26;29.49
50632;BME280;49583;45.590;-122.498;2023-03-19T00:03:34;100872.77;;;20.24;29.65
50632;BME280;49583;45.590;-122.498;2023-03-19T00:05:54;100871.79;;;20.20;29.54
50632;BME280;49583;45.590;-122.498;2023-03-19T00:08:07;100867.70;;;20.17;29.64
50632;BME280;49583;45.590;-122.498;2023-03-19T00:10:20;100865.39;;;20.13;29.63
50632;BME280;49583;45.590;-122.498;2023-03-19T00:12:33;100857.41;;;20.10;29.72
50632;BME280;49583;45.590;-122.498;2023-03-19T00:14:46;100857.95;;;20.06;29.82
50632;BME280;49583;45.590;-122.498;2023-03-19T00:16:59;100857.45;;;20.02;29.92
50632;BME280;49583;45.590;-122.498;2023-03-19T00:19:12;100853.48;;;20.01;29.94
50632;BME280;49583;45.590;-122.498;2023-03-19T00:21:25;100850.77;;;19.97;29.81
50632;BME280;49583;45.590;-122.498;2023-03-19T00:23:39;100849.37;;;19.89;30.00
50632;BME280;49583;45.590;-122.498;2023-03-19T00:25:52;100847.81;;;19.87;30.16
50632;BME280;49583;45.590;-122.498;2023-03-19T00:28:05;100848.88;;;19.84;30.20
50632;BME280;49583;45.590;-122.498;2023-03-19T00:30:18;100845.27;;;19.81;30.24
50632;BME280;49583;45.590;-122.498;2023-03-19T00:32:31;100845.55;;;19.79;30.46
50632;BME280;49583;45.590;-122.498;2023-03-19T00:34:45;100844.00;;;19.75;30.37
50632;BME280;49583;45.590;-122.498;2023-03-19T00:36:59;100841.47;;;19.69;30.34
50632;BME280;49583;45.590;-122.498;2023-03-19T00:39:13;100838.91;;;19.65;30.64
50632;BME280;49583;45.590;-122.498;2023-03-19T00:41:26;100842.19;;;19.63;30.68
50632;BME280;49583;45.590;-122.498;2023-03-19T00:43:40;100841.99;;;19.59;30.58
50632;BME280;49583;45.590;-122.498;2023-03-19T00:45:54;100837.71;;;19.52;30.73
50632;BME280;49583;45.590;-122.498;2023-03-19T00:48:07;100838.77;;;19.42;30.64
50632;BME280;49583;45.590;-122.498;2023-03-19T00:50:20;100837.06;;;19.33;30.70
50632;BME280;49583;45.590;-122.498;2023-03-19T00:52:34;100833.52;;;19.22;30.71
50632;BME280;49583;45.590;-122.498;2023-03-19T00:54:47;100832.64;;;19.17;30.91
50632;BME280;49583;45.590;-122.498;2023-03-19T00:56:59;100833.40;;;19.13;31.01
50632;BME280;49583;45.590;-122.498;2023-03-19T00:59:13;100827.27;;;19.09;31.06
50632;BME280;49583;45.590;-122.498;2023-03-19T01:01:26;100825.58;;;19.04;31.07
50632;BME280;49583;45.590;-122.498;2023-03-19T01:03:39;100828.69;;;19.03;31.42
50632;BME280;49583;45.590;-122.498;2023-03-19T01:05:52;100828.06;;;19.01;31.37
50632;BME280;49583;45.590;-122.498;2023-03-19T01:08:05;100828.48;;;18.98;31.35
50632;BME280;49583;45.590;-122.498;2023-03-19T01:10:18;100826.55;;;18.93;31.33
50632;BME280;49583;45.590;-122.498;2023-03-19T01:12:32;100818.79;;;18.86;31.39
50632;BME280;49583;45.590;-122.498;2023-03-19T01:14:45;100819.07;;;18.81;31.53
50632;BME280;49583;45.590;-122.498;2023-03-19T01:16:59;100814.36;;;18.77;31.53
50632;BME280;49583;45.590;-122.498;2023-03-19T01:19:12;100819.27;;;18.70;31.52
50632;BME280;49583;45.590;-122.498;2023-03-19T01:21:25;100814.04;;;18.61;31.63
50632;BME280;49583;45.590;-122.498;2023-03-19T01:23:40;100813.44;;;18.58;31.82
50632;BME280;49583;45.590;-122.498;2023-03-19T01:25:53;100813.77;;;18.56;32.01
50632;BME280;49583;45.590;-122.498;2023-03-19T01:28:07;100818.20;;;18.53;31.93
50632;BME280;49583;45.590;-122.498;2023-03-19T01:30:22;100815.64;;;18.48;32.06
50632;BME280;49583;45.590;-122.498;2023-03-19T01:32:52;100814.43;;;18.40;32.02
50632;BME280;49583;45.590;-122.498;2023-03-19T01:35:16;100814.73;;;18.34;32.11
50632;BME280;49583;45.590;-122.498;2023-03-19T01:37:29;100815.54;;;18.29;32.13
50632;BME280;49583;45.590;-122.498;2023-03-19T01:39:41;100812.02;;;18.26;32.14
50632;BME280;49583;45.590;-122.498;2023-03-19T01:41:55;100811.21;;;18.18;32.03
50632;BME280;49583;45.590;-122.498;2023-03-19T01:44:31;100808.84;;;18.06;32.17
50632;BME280;49583;45.590;-122.498;2023-03-19T01:47:09;100813.41;;;17.98;32.36
50632;BME280;49583;45.590;-122.498;2023-03-19T01:50:05;100812.50;;;17.92;32.34
50632;BME280;49583;45.590;-122.498;2023-03-19T01:52:18;100809.53;;;17.87;32.44
50632;BME280;49583;45.590;-122.498;2023-03-19T01:54:46;100812.54;;;17.85;32.61
50632;BME280;49583;45.590;-122.498;2023-03-19T01:57:30;100805.79;;;17.80;32.61
50632;BME280;49583;45.590;-122.498;2023-03-19T02:00:08;100803.99;;;17.73;32.73
50632;BME280;49583;45.590;-122.498;2023-03-19T02:02:27;100802.67;;;17.68;32.83
50632;BME280;49583;45.590;-122.498;2023-03-19T02:04:47;100807.52;;;17.64;32.93
50632;BME280;49583;45.590;-122.498;2023-03-19T02:07:02;100804.13;;;17.61;32.92
50632;BME280;49583;45.590;-122.498;2023-03-19T02:09:16;100800.81;;;17.57;32.94
50632;BME280;49583;45.590;-122.498;2023-03-19T02:11:29;100797.98;;;17.53;33.02
50632;BME280;49583;45.590;-122.498;2023-03-19T02:13:42;100797.05;;;17.49;33.08
50632;BME280;49583;45.590;-122.498;2023-03-19T02:15:55;100795.40;;;17.47;33.06
50632;BME280;49583;45.590;-122.498;2023-03-19T02:18:09;100795.88;;;17.45;33.12
50632;BME280;49583;45.590;-122.498;2023-03-19T02:20:26;100793.60;;;17.42;33.11
50632;BME280;49583;45.590;-122.498;2023-03-19T02:22:45;100795.20;;;17.38;33.29
50632;BME280;49583;45.590;-122.498;2023-03-19T02:25:08;100795.15;;;17.34;33.21
50632;BME280;49583;45.590;-122.498;2023-03-19T02:27:23;100794.61;;;17.28;33.23
50632;BME280;49583;45.590;-122.498;2023-03-19T02:29:37;100792.98;;;17.23;33.28
50632;BME280;49583;45.590;-122.498;2023-03-19T02:31:49;100789.91;;;17.17;33.38
50632;BME280;49583;45.590;-122.498;2023-03-19T02:34:04;100791.04;;;17.15;33.42
50632;BME280;49583;45.590;-122.498;2023-03-19T02:36:19;100788.52;;;17.10;33.58
50632;BME280;49583;45.590;-122.498;2023-03-19T02:38:34;100788.84;;;17.06;33.56
50632;BME280;49583;45.590;-122.498;2023-03-19T02:40:51;100789.25;;;17.03;33.56
50632;BME280;49583;45.590;-122.498;2023-03-19T02:43:05;100791.25;;;16.98;33.56
50632;BME280;49583;45.590;-122.498;2023-03-19T02:45:18;100790.32;;;16.91;33.65
50632;BME280;49583;45.590;-122.498;2023-03-19T02:47:34;100792.39;;;16.85;33.69
50632;BME280;49583;45.590;-122.498;2023-03-19T02:49:47;100787.91;;;16.79;33.85
50632;BME280;49583;45.590;-122.498;2023-03-19T02:52:00;100789.80;;;16.75;33.94
50632;BME280;49583;45.590;-122.498;2023-03-19T02:54:13;100786.27;;;16.71;33.90
50632;BME280;49583;45.590;-122.498;2023-03-19T02:56:26;100785.15;;;16.68;33.98
50632;BME280;49583;45.590;-122.498;2023-03-19T02:58:38;100786.74;;;16.65;34.04
50632;BME280;49583;45.590;-122.498;2023-03-19T03:00:51;100787.36;;;16.61;34.18
50632;BME280;49583;45.590;-122.498;2023-03-19T03:03:04;100787.34;;;16.59;34.14
50632;BME280;49583;45.590;-122.498;2023-03-19T03:05:18;100789.49;;;16.54;34.24
50632;BME280;49583;45.590;-122.498;2023-03-19T03:07:31;100791.30;;;16.49;34.37
50632;BME280;49583;45.590;-122.498;2023-03-19T03:09:44;100788.64;;;16.43;34.35
50632;BME280;49583;45.590;-122.498;2023-03-19T03:11:58;100785.63;;;16.37;34.51
50632;BME280;49583;45.590;-122.498;2023-03-19T03:14:12;100784.54;;;16.32;34.55
50632;BME280;49583;45.590;-122.498;2023-03-19T03:16:26;100786.98;;;16.29;34.77
50632;BME280;49583;45.590;-122.498;2023-03-19T03:18:40;100790.77;;;16.26;34.83
50632;BME280;49583;45.590;-122.498;2023-03-19T03:20:53;100794.32;;;16.22;35.06
50632;BME280;49583;45.590;-122.498;2023-03-19T03:23:06;100791.79;;;16.13;35.02
50632;BME280;49583;45.590;-122.498;2023-03-19T03:25:20;100790.45;;;16.07;35.08
50632;BME280;49583;45.590;-122.498;2023-03-19T03:27:33;100789.34;;;15.99;35.12
50632;BME280;49583;45.590;-122.498;2023-03-19T03:29:46;100787.04;;;15.91;35.24
50632;BME280;49583;45.590;-122.498;2023-03-19T03:31:59;100784.90;;;15.86;35.53
50632;BME280;49583;45.590;-122.498;2023-03-19T03:34:13;100785.37;;;15.83;35.68
50632;BME280;49583;45.590;-122.498;2023-03-19T03:36:27;100787.34;;;15.81;35.81
50632;BME280;49583;45.590;-122.498;2023-03-19T03:38:40;100790.10;;;15.79;36.04
50632;BME280;49583;45.590;-122.498;2023-03-19T03:40:54;100791.98;;;15.76;36.20
50632;BME280;49583;45.590;-122.498;2023-03-19T03:43:07;100799.79;;;15.75;36.36
50632;BME280;49583;45.590;-122.498;2023-03-19T03:45:20;100801.52;;;15.72;36.22
50632;BME280;49583;45.590;-122.498;2023-03-19T03:47:34;100805.23;;;15.69;36.30
50632;BME280;49583;45.590;-122.498;2023-03-19T03:49:48;100808.52;;;15.64;36.06
50632;BME280;49583;45.590;-122.498;2023-03-19T03:52:01;100805.35;;;15.60;36.07
50632;BME280;49583;45.590;-122.498;2023-03-19T03:54:14;100801.80;;;15.56;36.18
50632;BME280;49583;45.590;-122.498;2023-03-19T03:56:26;100798.14;;;15.53;36.05
50632;BME280;49583;45.590;-122.498;2023-03-19T03:58:39;100802.14;;;15.51;36.17
50632;BME280;49583;45.590;-122.498;2023-03-19T04:00:52;100807.05;;;15.53;36.27
50632;BME280;49583;45.590;-122.498;2023-03-19T04:03:05;100804.42;;;15.50;36.22
50632;BME280;49583;45.590;-122.498;2023-03-19T04:05:18;100806.72;;;15.47;36.18
50632;BME280;49583;45.590;-122.498;2023-03-19T04:07:31;100810.64;;;15.45;36.18
50632;BME280;49583;45.590;-122.498;2023-03-19T04:09:44;100810.14;;;15.42;36.40
50632;BME280;49583;45.590;-122.498;2023-03-19T04:11:58;100811.97;;;15.39;36.41
50632;BME280;49583;45.590;-122.498;2023-03-19T04:14:13;100816.54;;;15.38;36.52
50632;BME280;49583;45.590;-122.498;2023-03-19T04:16:27;100813.91;;;15.36;36.49
50632;BME280;49583;45.590;-122.498;2023-03-19T04:18:39;100816.75;;;15.34;36.46
50632;BME280;49583;45.590;-122.498;2023-03-19T04:20:53;100814.44;;;15.30;36.58
50632;BME280;49583;45.590;-122.498;2023-03-19T04:23:06;100814.19;;;15.26;36.60
50632;BME280;49583;45.590;-122.498;2023-03-19T04:25:20;100815.67;;;15.23;36.61
50632;BME280;49583;45.590;-122.498;2023-03-19T04:27:33;100816.59;;;15.18;36.69
50632;BME280;49583;45.590;-122.498;2023-03-19T04:29:48;100817.61;;;15.14;36.89
50632;BME280;49583;45.590;-122.498;2023-03-19T04:32:01;100814.42;;;15.08;36.84
50632;BME280;49583;45.590;-122.498;2023-03-19T04:34:14;100814.08;;;15.02;36.93
50632;BME280;49583;45.590;-122.498;2023-03-19T04:36:27;100812.45;;;14.95;36.97
50632;BME280;49583;45.590;-122.498;2023-03-19T04:38:40;100815.50;;;14.89;37.12
50632;BME280;49583;45.590;-122.498;2023-03-19T04:40:53;100818.05;;;14.83;37.26
50632;BME280;49583;45.590;-122.498;2023-03-19T04:43:06;100813.06;;;14.77;37.24
50632;BME280;49583;45.590;-122.498;2023-03-19T04:45:19;100809.70;;;14.72;37.29
50632;BME280;49583;45.590;-122.498;2023-03-19T04:47:33;100808.11;;;14.68;37.43
50632;BME280;49583;45.590;-122.498;2023-03-19T04:49:46;100806.91;;;14.62;37.43
50632;BME280;49583;45.590;-122.498;2023-03-19T04:52:00;100804.18;;;14.56;37.62
50632;BME280;49583;45.590;-122.498;2023-03-19T04:54:13;100806.27;;;14.51;37.80
50632;BME280;49583;45.590;-122.498;2023-03-19T04:56:26;100809.62;;;14.47;37.79
50632;BME280;49583;45.590;-122.498;2023-03-19T04:58:39;100805.33;;;14.41;37.88
50632;BME280;49583;45.590;-122.498;2023-03-19T05:00:52;100805.02;;;14.37;38.09
50632;BME280;49583;45.590;-122.498;2023-03-19T05:03:17;100804.05;;;14.34;38.17
50632;BME280;49583;45.590;-122.498;2023-03-19T05:05:30;100805.64;;;14.27;38.36
50632;BME280;49583;45.590;-122.498;2023-03-19T05:07:46;100808.42;;;14.20;38.50
50632;BME280;49583;45.590;-122.498;2023-03-19T05:09:59;100802.40;;;14.16;38.59
50632;BME280;49583;45.590;-122.498;2023-03-19T05:12:13;100806.95;;;14.13;38.73
50632;BME280;49583;45.590;-122.498;2023-03-19T05:14:29;100802.41;;;14.06;38.82
50632;BME280;49583;45.590;-122.498;2023-03-19T05:16:52;100800.38;;;13.99;38.97
50632;BME280;49583;45.590;-122.498;2023-03-19T05:19:06;100802.43;;;13.93;39.11
50632;BME280;49583;45.590;-122.498;2023-03-19T05:21:20;100799.79;;;13.89;39.22
50632;BME280;49583;45.590;-122.498;2023-03-19T05:23:34;100801.80;;;13.84;39.37
50632;BME280;49583;45.590;-122.498;2023-03-19T05:25:49;100793.80;;;13.80;39.53
50632;BME280;49583;45.590;-122.498;2023-03-19T05:28:06;100801.95;;;13.75;39.73
50632;BME280;49583;45.590;-122.498;2023-03-19T05:30:19;100796.63;;;13.71;39.71
50632;BME280;49583;45.590;-122.498;2023-03-19T05:32:33;100799.11;;;13.68;39.91
50632;BME280;49583;45.590;-122.498;2023-03-19T05:34:49;100797.39;;;13.62;40.07
50632;BME280;49583;45.590;-122.498;2023-03-19T05:37:02;100798.05;;;13.57;40.21
50632;BME280;49583;45.590;-122.498;2023-03-19T05:39:15;100795.03;;;13.53;40.27
50632;BME280;49583;45.590;-122.498;2023-03-19T05:41:29;100793.88;;;13.50;40.39
50632;BME280;49583;45.590;-122.498;2023-03-19T05:43:44;100790.39;;;13.47;40.50
50632;BME280;49583;45.590;-122.498;2023-03-19T05:46:09;100788.30;;;13.42;40.61
50632;BME280;49583;45.590;-122.498;2023-03-19T05:48:22;100789.45;;;13.39;40.59
50632;BME280;49583;45.590;-122.498;2023-03-19T05:50:35;100789.97;;;13.37;40.70
50632;BME280;49583;45.590;-122.498;2023-03-19T05:53:00;100787.52;;;13.36;40.77
50632;BME280;49583;45.590;-122.498;2023-03-19T05:55:14;100788.35;;;13.34;40.72
50632;BME280;49583;45.590;-122.498;2023-03-19T05:57:31;100788.72;;;13.31;40.96
50632;BME280;49583;45.590;-122.498;2023-03-19T06:00:04;100781.56;;;13.30;41.02
50632;BME280;49583;45.590;-122.498;2023-03-19T06:02:17;100775.02;;;13.29;41.05
50632;BME280;49583;45.590;-122.498;2023-03-19T06:04:32;100772.26;;;13.28;41.07
50632;BME280;49583;45.590;-122.498;2023-03-19T06:06:45;100765.95;;;13.27;41.21
50632;BME280;49583;45.590;-122.498;2023-03-19T06:09:00;100761.62;;;13.26;41.22
50632;BME280;49583;45.590;-122.498;2023-03-19T06:11:24;100757.61;;;13.26;41.30
50632;BME280;49583;45.590;-122.498;2023-03-19T06:14:09;100747.62;;;13.25;41.30
50632;BME280;49583;45.590;-122.498;2023-03-19T06:16:21;100743.54;;;13.25;41.43
50632;BME280;49583;45.590;-122.498;2023-03-19T06:18:35;100740.70;;;13.24;41.43
50632;BME280;49583;45.590;-122.498;2023-03-19T06:20:52;100739.36;;;13.23;41.58
50632;BME280;49583;45.590;-122.498;2023-03-19T06:23:05;100740.60;;;13.21;41.71
50632;BME280;49583;45.590;-122.498;2023-03-19T06:25:18;100747.80;;;13.20;41.66
50632;BME280;49583;45.590;-122.498;2023-03-19T06:27:32;100748.64;;;13.19;41.49
50632;BME280;49583;45.590;-122.498;2023-03-19T06:29:59;100746.19;;;13.17;41.78
50632;BME280;49583;45.590;-122.498;2023-03-19T06:32:15;100741.23;;;13.12;41.66
50632;BME280;49583;45.590;-122.498;2023-03-19T06:34:30;100741.06;;;13.04;41.53
50632;BME280;49583;45.590;-122.498;2023-03-19T06:36:43;100740.56;;;12.96;41.62
50632;BME280;49583;45.590;-122.498;2023-03-19T06:38:59;100743.88;;;12.91;41.66
50632;BME280;49583;45.590;-122.498;2023-03-19T06:41:12;100744.28;;;12.86;41.62
50632;BME280;49583;45.590;-122.498;2023-03-19T06:43:26;100746.33;;;12.85;41.68
50632;BME280;49583;45.590;-122.498;2023-03-19T06:45:39;100740.85;;;12.81;41.81
50632;BME280;49583;45.590;-122.498;2023-03-19T06:47:51;100740.65;;;12.79;41.73
50632;BME280;49583;45.590;-122.498;2023-03-19T06:50:06;100738.84;;;12.78;41.80
50632;BME280;49583;45.590;-122.498;2023-03-19T06:52:18;100732.98;;;12.75;41.63
50632;BME280;49583;45.590;-122.498;2023-03-19T06:54:31;100731.64;;;12.73;41.77
50632;BME280;49583;45.590;-122.498;2023-03-19T06:56:47;100730.78;;;12.74;41.67
50632;BME280;49583;45.590;-122.498;2023-03-19T06:59:00;100726.35;;;12.72;41.70
50632;BME280;49583;45.590;-122.498;2023-03-19T07:01:13;100727.00;;;12.72;41.80
50632;BME280;49583;45.590;-122.498;2023-03-19T07:03:27;100723.79;;;12.73;41.58
50632;BME280;49583;45.590;-122.498;2023-03-19T07:05:39;100720.52;;;12.70;41.66
50632;BME280;49583;45.590;-122.498;2023-03-19T07:07:52;100717.79;;;12.71;41.59
50632;BME280;49583;45.590;-122.498;2023-03-19T07:10:05;100712.05;;;12.71;41.67
50632;BME280;49583;45.590;-122.498;2023-03-19T07:12:18;100705.62;;;12.71;41.68
50632;BME280;49583;45.590;-122.498;2023-03-19T07:14:30;100697.60;;;12.70;41.59
50632;BME280;49583;45.590;-122.498;2023-03-19T07:16:43;100695.80;;;12.69;41.54
50632;BME280;49583;45.590;-122.498;2023-03-19T07:18:56;100697.29;;;12.69;41.60
50632;BME280;49583;45.590;-122.498;2023-03-19T07:21:09;100692.65;;;12.69;41.47
50632;BME280;49583;45.590;-122.498;2023-03-19T07:23:22;100693.59;;;12.68;41.42
50632;BME280;49583;45.590;-122.498;2023-03-19T07:25:34;100689.09;;;12.67;41.37
50632;BME280;49583;45.590;-122.498;2023-03-19T07:27:47;100684.66;;;12.65;41.43
50632;BME280;49583;45.590;-122.498;2023-03-19T07:30:04;100677.64;;;12.63;41.48
50632;BME280;49583;45.590;-122.498;2023-03-19T07:32:17;100670.72;;;12.60;41.57
50632;BME280;49583;45.590;-122.498;2023-03-19T07:34:29;100666.46;;;12.59;41.72
50632;BME280;49583;45.590;-122.498;2023-03-19T07:36:42;100665.66;;;12.58;41.56
50632;BME280;49583;45.590;-122.498;2023-03-19T07:38:55;100662.59;;;12.58;41.72
50632;BME280;49583;45.590;-122.498;2023-03-19T07:41:07;100657.65;;;12.58;41.96
50632;BME280;49583;45.590;-122.498;2023-03-19T07:43:21;100652.23;;;12.56;41.84
50632;BME280;49583;45.590;-122.498;2023-03-19T07:45:33;100643.96;;;12.55;42.11
50632;BME280;49583;45.590;-122.498;2023-03-19T07:47:46;100642.30;;;12.54;42.27
50632;BME280;49583;45.590;-122.498;2023-03-19T07:50:00;100643.86;;;12.52;42.53
50632;BME280;49583;45.590;-122.498;2023-03-19T07:52:13;100643.95;;;12.48;42.46
50632;BME280;49583;45.590;-122.498;2023-03-19T07:54:28;100638.74;;;12.46;42.29
50632;BME280;49583;45.590;-122.498;2023-03-19T07:56:41;100639.13;;;12.45;42.51
50632;BME280;49583;45.590;-122.498;2023-03-19T07:58:55;100639.91;;;12.45;42.44
50632;BME280;49583;45.590;-122.498;2023-03-19T08:01:08;100637.67;;;12.43;42.69
50632;BME280;49583;45.590;-122.498;2023-03-19T08:03:18;100635.02;;;12.39;42.64
50632;BME280;49583;45.590;-122.498;2023-03-19T08:05:31;100636.11;;;12.37;42.81
50632;BME280;49583;45.590;-122.498;2023-03-19T08:07:44;100640.63;;;12.34;43.01
50632;BME280;49583;45.590;-122.498;2023-03-19T08:09:57;100636.51;;;12.32;43.05
50632;BME280;49583;45.590;-122.498;2023-03-19T08:12:11;100633.80;;;12.28;43.17
50632;BME280;49583;45.590;-122.498;2023-03-19T08:14:25;100633.58;;;12.24;43.10
50632;BME280;49583;45.590;-122.498;2023-03-19T08:16:38;100628.42;;;12.19;43.23
50632;BME280;49583;45.590;-122.498;2023-03-19T08:18:52;100627.59;;;12.16;43.52
50632;BME280;49583;45.590;-122.498;2023-03-19T08:21:06;100625.64;;;12.11;43.57
50632;BME280;49583;45.590;-122.498;2023-03-19T08:23:19;100624.50;;;12.08;43.58
50632;BME280;49583;45.590;-122.498;2023-03-19T08:25:32;100627.61;;;12.06;43.50
50632;BME280;49583;45.590;-122.498;2023-03-19T08:27:45;100626.08;;;12.04;43.22
50632;BME280;49583;45.590;-122.498;2023-03-19T08:29:58;100618.98;;;12.02;43.30
50632;BME280;49583;45.590;-122.498;2023-03-19T08:32:12;100613.52;;;11.99;43.56
50632;BME280;49583;45.590;-122.498;2023-03-19T08:34:25;100612.78;;;12.00;43.53
50632;BME280;49583;45.590;-122.498;2023-03-19T08:36:38;100612.62;;;12.00;43.23
50632;BME280;49583;45.590;-122.498;2023-03-19T08:38:51;100609.95;;;11.99;43.34
50632;BME280;49583;45.590;-122.498;2023-03-19T08:41:05;100617.32;;;12.00;43.45
50632;BME280;49583;45.590;-122.498;2023-03-19T08:43:18;100616.52;;;11.99;43.45
50632;BME280;49583;45.590;-122.498;2023-03-19T08:45:31;100620.99;;;11.99;43.40
50632;BME280;49583;45.590;-122.498;2023-03-19T08:47:43;100615.57;;;11.98;43.47
50632;BME280;49583;45.590;-122.498;2023-03-19T08:49:56;100612.89;;;11.98;43.63
50632;BME280;49583;45.590;-122.498;2023-03-19T08:52:09;100610.77;;;11.97;43.66
50632;BME280;49583;45.590;-122.498;2023-03-19T08:54:22;100610.20;;;11.95;43.75
50632;BME280;49583;45.590;-122.498;2023-03-19T08:56:34;100609.03;;;11.96;43.80
50632;BME280;49583;45.590;-122.498;2023-03-19T08:58:47;100606.73;;;11.94;43.87
50632;BME280;49583;45.590;-122.498;2023-03-19T09:01:05;100608.45;;;11.94;43.91
50632;BME280;49583;45.590;-122.498;2023-03-19T09:03:19;100611.65;;;11.93;44.39
50632;BME280;49583;45.590;-122.498;2023-03-19T09:05:31;100610.55;;;11.93;44.59
50632;BME280;49583;45.590;-122.498;2023-03-19T09:07:45;100606.22;;;11.91;44.71
50632;BME280;49583;45.590;-122.498;2023-03-19T09:09:57;100605.02;;;11.89;44.80
50632;BME280;49583;45.590;-122.498;2023-03-19T09:12:12;100602.02;;;11.89;45.07
50632;BME280;49583;45.590;-122.498;2023-03-19T09:14:26;100594.77;;;11.86;45.49
50632;BME280;49583;45.590;-122.498;2023-03-19T09:16:39;100595.46;;;11.85;45.75
50632;BME280;49583;45.590;-122.498;2023-03-19T09:18:52;100596.23;;;11.83;45.84
50632;BME280;49583;45.590;-122.498;2023-03-19T09:21:07;100591.71;;;11.80;46.03
50632;BME280;49583;45.590;-122.498;2023-03-19T09:23:20;100588.23;;;11.79;46.26
50632;BME280;49583;45.590;-122.498;2023-03-19T09:25:34;100583.35;;;11.77;46.56
50632;BME280;49583;45.590;-122.498;2023-03-19T09:27:47;100579.86;;;11.75;46.41
50632;BME280;49583;45.590;-122.498;2023-03-19T09:30:00;100582.33;;;11.73;46.58
50632;BME280;49583;45.590;-122.498;2023-03-19T09:32:14;100575.31;;;11.72;46.43
50632;BME280;49583;45.590;-122.498;2023-03-19T09:34:28;100566.79;;;11.72;46.33
50632;BME280;49583;45.590;-122.498;2023-03-19T09:36:41;100564.11;;;11.72;46.23
50632;BME280;49583;45.590;-122.498;2023-03-19T09:38:54;100560.71;;;11.70;46.21
50632;BME280;49583;45.590;-122.498;2023-03-19T09:41:12;100557.16;;;11.67;46.30
50632;BME280;49583;45.590;-122.498;2023-03-19T09:43:45;100555.64;;;11.66;46.46
50632;BME280;49583;45.590;-122.498;2023-03-19T09:46:05;100553.48;;;11.63;46.55
50632;BME280;49583;45.590;-122.498;2023-03-19T09:48:28;100547.19;;;11.61;46.67
50632;BME280;49583;45.590;-122.498;2023-03-19T09:50:43;100548.49;;;11.59;46.60
50632;BME280;49583;45.590;-122.498;2023-03-19T09:53:03;100547.89;;;11.56;46.60
50632;BME280;49583;45.590;-122.498;2023-03-19T09:55:30;100545.73;;;11.54;46.48
50632;BME280;49583;45.590;-122.498;2023-03-19T09:57:46;100538.98;;;11.52;47.01
50632;BME280;49583;45.590;-122.498;2023-03-19T09:59:59;100537.89;;;11.48;46.87
50632;BME280;49583;45.590;-122.498;2023-03-19T10:02:30;100539.50;;;11.45;47.02
50632;BME280;49583;45.590;-122.498;2023-03-19T10:04:57;100544.58;;;11.40;47.12
50632;BME280;49583;45.590;-122.498;2023-03-19T10:07:23;100542.14;;;11.34;47.20
50632;BME280;49583;45.590;-122.498;2023-03-19T10:09:48;100534.82;;;11.27;47.28
50632;BME280;49583;45.590;-122.498;2023-03-19T10:12:21;100528.88;;;11.22;47.12
50632;BME280;49583;45.590;-122.498;2023-03-19T10:14:50;100519.23;;;11.16;47.11
50632;BME280;49583;45.590;-122.498;2023-03-19T10:17:09;100513.66;;;11.11;47.22
50632;BME280;49583;45.590;-122.498;2023-03-19T10:19:33;100515.55;;;11.08;47.49
50632;BME280;49583;45.590;-122.498;2023-03-19T10:21:52;100513.91;;;11.02;47.60
50632;BME280;49583;45.590;-122.498;2023-03-19T10:24:10;100514.46;;;10.98;47.69
50632;BME280;49583;45.590;-122.498;2023-03-19T10:26:29;100515.08;;;10.94;47.96
50632;BME280;49583;45.590;-122.498;2023-03-19T10:28:50;100513.23;;;10.89;48.02
50632;BME280;49583;45.590;-122.498;2023-03-19T10:31:17;100512.67;;;10.86;48.14
50632;BME280;49583;45.590;-122.498;2023-03-19T10:33:39;100515.41;;;10.81;48.20
50632;BME280;49583;45.590;-122.498;2023-03-19T10:35:59;100512.69;;;10.78;48.40
50632;BME280;49583;45.590;-122.498;2023-03-19T10:38:21;100512.10;;;10.75;48.58
50632;BME280;49583;45.590;-122.498;2023-03-19T10:40:41;100504.30;;;10.72;48.77
50632;BME280;49583;45.590;-122.498;2023-03-19T10:43:05;100495.00;;;10.68;48.67
50632;BME280;49583;45.590;-122.498;2023-03-19T10:45:26;100485.42;;;10.63;49.00
50632;BME280;49583;45.590;-122.498;2023-03-19T10:47:41;100485.58;;;10.58;48.86
50632;BME280;49583;45.590;-122.498;2023-03-19T10:49:57;100488.30;;;10.52;49.01
50632;BME280;49583;45.590;-122.498;2023-03-19T10:52:19;100489.29;;;10.48;49.04
50632;BME280;49583;45.590;-122.498;2023-03-19T10:54:33;100487.90;;;10.44;49.23
50632;BME280;49583;45.590;-122.498;2023-03-19T10:56:55;100490.45;;;10.42;49.42
50632;BME280;49583;45.590;-122.498;2023-03-19T10:59:22;100491.83;;;10.40;49.52
50632;BME280;49583;45.590;-122.498;2023-03-19T11:01:37;100492.25;;;10.39;49.70
50632;BME280;49583;45.590;-122.498;2023-03-19T11:03:54;100490.83;;;10.36;49.96
50632;BME280;49583;45.590;-122.498;2023-03-19T11:06:17;100489.05;;;10.34;50.51
50632;BME280;49583;45.590;-122.498;2023-03-19T11:08:32;100483.05;;;10.32;50.68
50632;BME280;49583;45.590;-122.498;2023-03-19T11:10:50;100480.83;;;10.30;50.83
50632;BME280;49583;45.590;-122.498;2023-03-19T11:13:06;100480.33;;;10.27;50.98
50632;BME280;49583;45.590;-122.498;2023-03-19T11:15:31;100474.41;;;10.25;50.91
50632;BME280;49583;45.590;-122.498;2023-03-19T11:17:48;100470.70;;;10.24;51.12
50632;BME280;49583;45.590;-122.498;2023-03-19T11:22:32;100465.01;;;10.20;51.22
50632;BME280;49583;45.590;-122.498;2023-03-19T11:24:53;100463.61;;;10.17;51.31